SVMP weather

Metropolitano Airport
Miranda, Venezuela

Public forecast

Using degrees Celsius for public forecast. Weather courtesy of forecast.io.

Current aviation weather report (METAR) for Metropolitano Airport

Report is more than 6 hours old.

Retrieved 2012/07/02 01:00 UTC (8 years ago):

SVMP 020100Z N I L

Closest aviation forecast (TAF) to Metropolitano Airport

Closest forecast is Simón Bolívar International Airport, 30.6 nm (56.6 km) NNW. Retrieved 2020/07/04 18:40 UTC (3 hours ago):

TAF SVMI 041600Z 0418/0518 07008KT 9999 FEW016 TX34/18Z TN24/08Z BECMG 0418/0422 09010KT SCT016 FM050100 07003KT 9999 FEW016